Página principal
METAR-TAF:

METAR-TAF

Aeroportos :

Kuwait, Kuwait

Aeroporto Internacional do Kuwait

latitude: 29-13N, longitude: 047-59E, altura: 55 m

Observação actual do tempo

O boletim foi feito há 31 minutos, às 13:00 UTC
Vento 7 kt de sudeste
Temperatura 21°C
Humidade 40%
Pressão 1012 hPa
Visibilidade 10 km ou mais
sem nuvens abaixo de 1500 metros e sem cumulonimbus

METAR: OKBK 211300Z 13007KT CAVOK 21/07 Q1012 NOSIG

Hora: 16:31 (13:31 UTC)

Previsão

O boletim foi feito há 26 horas e 46 minutos, às 10:45 UTC
Previsão válida de 20 às 12 UTC a 21 às 18 UTC
Vento 8 kt de nor-noroeste
Visibilidade: 7000 m
Temporariamente
de 20 às 19 UTC a 21 às 06 UTC
Vento 3 kt com direcção variável

TAF: OKBK 201045Z 2012/2118 34008KT 7000 NSC TEMPO 2019/2106 VRB03KT

Observações e previsões do tempo de mais de 4000 aeroportos (mensagens METAR e TAF).

As estações disponíveis são os pontos amarelos e vermelhos sobre o mapa.

Mova o rato sobre o mapa para ver o nome da estação.

Depois clique no ponto para visualizar as observações e previsões meteorológicas.

Para alterar o mapa : clique nos botões verdes com uma cruz preta para aumentar o zoom; no botão verde com uma pitada de zoom; ou nas setas verdes para mapas adjacentes.


METAR-TAF: